NCAR-RAP Real-Time Weather Data

Output produced by METARs form (12 August 2020  18:33 UTC)
found at http://weather.rap.ucar.edu/surface/
 
KTUL 121753Z VRB05KT 10SM SCT030 SCT250 31/23 A2999 RMK AO2 SLP147 T03060233 10306 20211 50001
KTUL 121653Z 12008KT 10SM FEW025 SCT250 29/23 A3000 RMK AO2 SLP149 T02940233
KTUL 121553Z 11006KT 10SM FEW020 SCT250 27/23 A3000 RMK AO2 SLP150 T02720228
KTUL 121453Z 11007KT 10SM FEW015 SCT250 26/22 A2998 RMK AO2 SLP146 T02560217 50004
KTUL 121353Z 11004KT 10SM FEW015 SCT250 24/21 A2999 RMK AO2 SLP148 T02390211
KTUL 121253Z 03003KT 10SM FEW005 FEW060 SCT250 22/21 A2999 RMK AO2 SLP149 T02220206
KTUL 121153Z 00000KT 10SM FEW005 FEW060 SCT150 21/21 A2997 RMK AO2 SLP142 70028 T02110206 10222 20206 53012
KTUL 121143Z 08003KT 10SM FEW005 FEW060 SCT150 21/21 A2997 RMK AO2 T02110206
KTUL 121053Z 10003KT 10SM BKN005 21/21 A2996 RMK AO2 SLP138 T02060206
KTUL 121033Z 11003KT 10SM BKN005 21/20 A2995 RMK AO2 T02060200
KTUL 120953Z 12004KT 10SM FEW020 21/20 A2994 RMK AO2 SLP133 T02060200
KTUL 120853Z 11004KT 10SM CLR 21/20 A2994 RMK AO2 SLP130 T02110200 56009
KTUL 120753Z 11004KT 10SM CLR 22/21 A2994 RMK AO2 SLP130 T02170206
KTUL 120653Z 00000KT 10SM FEW015 22/21 A2995 RMK AO2 SLP133 T02170211
KTUL 120553Z 13004KT 10SM FEW015 FEW250 22/21 A2996 RMK AO2 SLP140 T02220211 10250 20217 402890217 50001
KTUL 120453Z 15005KT 10SM FEW250 22/22 A2997 RMK AO2 SLP141 T02220217
KTUL 120353Z 14007KT 10SM FEW015 FEW250 23/22 A2997 RMK AO2 SLP140 T02280217
KTUL 120321Z 12007KT 10SM SCT015 23/22 A2997 RMK AO2 T02280217
KTUL 120253Z 12006KT 10SM OVC015 23/22 A2996 RMK AO2 SLP137 T02330217 53007
KTUL 120228Z 10006KT 10SM BKN015 23/22 A2995 RMK AO2 T02280217
KTUL 120153Z 09008KT 10SM FEW012 FEW050 FEW100 FEW250 23/22 A2994 RMK AO2 SLP131 T02330217
KTUL 120053Z 15006KT 10SM FEW012 FEW055 FEW100 FEW250 24/22 A2992 RMK AO2 SLP125 TCU DSNT NE AND SE-SW T02440222
KTUL 112353Z 12010KT 10SM FEW012 FEW055 SCT100 SCT250 25/23 A2994 RMK AO2 SLP131 CB DSNT SE MOV E 60028 T02500228 10289 20239 53001
KTUL 112253Z 14009KT 10SM FEW012 SCT060 BKN120 BKN250 26/23 A2994 RMK AO2 LTG DSNT SE AND S SLP130 CB DSNT E-S MOV E T02610233
KTUL 112153Z 09009KT 10SM SCT012 SCT060 BKN100 BKN250 25/23 A2993 RMK AO2 LTG DSNT S RAB2055E46 SLP128 CB DSNT S MOV E P0028 T02500228 $
KTUL 112123Z 08011KT 4SM -RA BR FEW025 BKN038 BKN070 BKN160 BKN250 24/22 A2994 RMK AO2 RAB2055 VSBY LWR S P0027 T02390222 $
KTUL 112101Z 05009KT 1 3/4SM R18L/6000VP6000FT +RA FEW030 SCT055 BKN140 OVC250 25/22 A2993 RMK AO2 RAB2055 P0004 T02500222
KTUL 112053Z 04008KT 10SM FEW030 SCT055 BKN140 OVC250 27/23 A2994 RMK AO2 RAB1958E16 SLP129 SHRA E AND SW P0000 60000 T02720228 58005
KTUL 111953Z 11006KT 10SM FEW025 BKN050 BKN100 BKN250 28/22 A2994 RMK AO2 SLP130 T02830222
KTUL 111853Z 11007KT 10SM FEW025 BKN060 BKN100 BKN250 28/22 A2995 RMK AO2 SLP135 CB MOV E T02780222
KTUL 111753Z 09007KT 10SM FEW025 FEW060 SCT100 BKN250 26/22 A2995 RMK AO2 RAE34 SLP134 CB DSNT E-SE MOV NE P0000 60000 T02610217 10267 20228 58010
KTUL 111653Z 32004KT 10SM -RA FEW015 FEW060 BKN100 OVC200 26/22 A2999 RMK AO2 LTG DSNT SE SLP148 CB DSNT SE MOV NE P0000 T02560222
KTUL 111553Z 00000KT 10SM -RA FEW020 FEW050 BKN100 OVC200 27/22 A2999 RMK AO2 RAB40 SLP149 CB DSNT S-SW MOV NE P0000 T02670217
KTUL 111453Z 00000KT 10SM FEW045 FEW120 OVC180 26/21 A2998 RMK AO2 RAE44 SLP145 CB MOV NE P0000 60000 T02610211 51015
KTUL 111353Z 12003KT 10SM -RA FEW060 SCT100 BKN150 OVC250 24/21 A2998 RMK AO2 LTG DSNT NE SLP144 CB DSNT NE MOV NE P0000 T02440211
KTUL 111253Z 10004KT 10SM -RA FEW060 SCT100 BKN150 OVC250 23/21 A2995 RMK AO2 LTG DSNT N AND NE SLP134 CB DSNT N-NE MOV NE P0000 T02330211
KTUL 111153Z 35004KT 10SM -RA FEW050 SCT100 BKN150 24/20 A2994 RMK AO2 LTG DSNT E AND NW SLP129 OCNL LTGIC DSNT E CB DSNT E MOV E P0000 60000 T02390200 10267 20233 53003
KTUL 111053Z 00000KT 10SM -RA SCT060 BKN110 OVC200 24/20 A2992 RMK AO2 RAB13 SLP123 P0000 T02390200
KTUL 110953Z 09005KT 10SM SCT050 BKN150 OVC200 24/19 A2991 RMK AO2 LTG DSNT S SLP117 OCNL LTGIC DSNT W CB DSNT W MOV E T02440194
KTUL 110853Z 00000KT 10SM SCT065 BKN100 OVC150 25/19 A2993 RMK AO2 SLP124 OCNL LTGIC DSNT SW CB DSNT SW MOV NE T02500189 50000
KTUL 110753Z 26008KT 10SM FEW050 SCT100 BKN150 25/19 A2997 RMK AO2 SLP137 T02500194
KTUL 110653Z 31006KT 10SM FEW050 SCT180 BKN250 26/21 A2996 RMK AO2 SLP134 T02560206
KTUL 110553Z 10004KT 10SM FEW060 SCT150 BKN250 26/20 A2993 RMK AO2 SLP124 T02560200 10333 20250 403560250 50008
KTUL 110453Z 00000KT 10SM FEW100 SCT150 BKN250 27/19 A2993 RMK AO2 SLP126 T02720194
KTUL 110353Z 00000KT 10SM FEW100 FEW170 SCT250 26/19 A2992 RMK AO2 SLP122 T02610194
KTUL 110253Z 14006KT 10SM FEW050 FEW100 SCT170 SCT250 26/19 A2990 RMK AO2 TSE06 SLP116 TS DSIPTD T02610189 50002
KTUL 110212Z 17003KT 10SM FEW055 SCT090 SCT250 27/19 A2991 RMK AO2 TSE06 TS DSIPTD T02670189
KTUL 110153Z 36005KT 10SM TS SCT055CB SCT090 BKN250 26/19 A2992 RMK AO2 PK WND 34027/0121 LTG DSNT N TSB41 SLP122 OCNL LTGICCC N-NE TS N-NE MOV SE CB DSNT N MOV SE T02610189
KTUL 110053Z 18008KT 10SM SCT045 BKN100 BKN250 33/22 A2991 RMK AO2 LTG DSNT N AND NW SLP117 CB DSNT N AND NW MOV SE T03330217
KTUL 102353Z 17011KT 10SM FEW050 SCT100 SCT250 34/22 A2989 RMK AO2 SLP113 CB DSNT NE MOV E T03390217 10356 20339 55006
KTUL 102253Z 20010KT 10SM FEW050 FEW100 SCT250 35/23 A2989 RMK AO2 SLP113 CB DSNT NE MOV E TCU DSNT N T03500228
KTUL 102153Z 21008G18KT 190V260 10SM FEW050 SCT100 BKN250 35/23 A2990 RMK AO2 SLP114 CB DSNT N-NE MOV E T03500228
KTUL 102053Z 18013KT 10SM FEW050 FEW090 SCT250 36/23 A2991 RMK AO2 SLP119 CB DSNT N AND NW MOV E T03560228 58019
KTUL 101953Z 19013G21KT 10SM FEW045 FEW100 SCT250 36/23 A2993 RMK AO2 SLP123 CB DSNT NW MOV E T03560233
KTUL 101853Z 20009G16KT 10SM FEW060 FEW100 SCT250 35/23 A2995 RMK AO2 SLP132 CB DSNT NW MOV E T03500228